Time,TemperatureF,DewpointF,PressureIn,WindDirection,WindDirectionDegrees,WindSpeedMPH,WindSpeedGustMPH,Humidity,HourlyPrecipIn,Conditions,Clouds,dailyrainin,SolarRadiationWatts/m^2,SoftwareType,DateUTC
2013-09-25 00:13:00,60.8,58.0,29.83,NW,308,0.0,2.0,90,0.00,,,0.00,0,weatherlink.com 1.10,2013-09-25 05:13:00,
2013-09-25 00:28:00,60.5,58.0,29.83,NW,308,0.0,2.0,90,0.00,,,0.00,0,weatherlink.com 1.10,2013-09-25 05:28:00,
2013-09-25 00:43:00,60.2,57.0,29.83,NW,308,0.0,2.0,90,0.00,,,0.00,0,weatherlink.com 1.10,2013-09-25 05:43:00,
2013-09-25 00:58:00,60.0,57.0,29.83,NW,308,0.0,1.0,91,0.00,,,0.00,0,weatherlink.com 1.10,2013-09-25 05:58:00,
2013-09-25 01:13:00,59.8,57.0,29.83,NW,308,0.0,2.0,91,0.00,,,0.00,0,weatherlink.com 1.10,2013-09-25 06:13:00,
2013-09-25 01:28:00,59.4,57.0,29.84,NW,308,0.0,2.0,91,0.00,,,0.00,0,weatherlink.com 1.10,2013-09-25 06:28:00,
2013-09-25 01:43:00,59.4,57.0,29.83,NW,308,0.0,2.0,92,0.00,,,0.00,0,weatherlink.com 1.10,2013-09-25 06:43:00,
2013-09-25 01:58:00,59.1,57.0,29.83,NW,308,0.0,3.0,92,0.00,,,0.00,0,weatherlink.com 1.10,2013-09-25 06:58:00,
2013-09-25 02:13:00,58.7,57.0,29.83,NW,308,0.0,0.0,93,0.00,,,0.00,0,weatherlink.com 1.10,2013-09-25 07:13:00,
2013-09-25 02:28:00,58.6,57.0,29.83,NW,308,0.0,2.0,93,0.00,,,0.00,0,weatherlink.com 1.10,2013-09-25 07:28:00,
2013-09-25 02:43:00,58.4,56.0,29.83,NW,308,0.0,1.0,93,0.00,,,0.00,0,weatherlink.com 1.10,2013-09-25 07:43:00,
2013-09-25 02:58:00,58.2,56.0,29.83,NW,308,0.0,2.0,93,0.00,,,0.00,0,weatherlink.com 1.10,2013-09-25 07:58:00,
2013-09-25 03:13:00,57.9,56.0,29.83,NW,308,0.0,1.0,93,0.00,,,0.00,0,weatherlink.com 1.10,2013-09-25 08:13:00,
2013-09-25 03:28:00,57.6,56.0,29.83,NW,308,0.0,0.0,94,0.00,,,0.00,0,weatherlink.com 1.10,2013-09-25 08:28:00,
2013-09-25 03:43:00,57.1,55.0,29.83,NW,308,0.0,0.0,94,0.00,,,0.00,0,weatherlink.com 1.10,2013-09-25 08:43:00,
2013-09-25 03:58:00,56.6,55.0,29.83,NW,308,0.0,2.0,94,0.00,,,0.00,0,weatherlink.com 1.10,2013-09-25 08:58:00,
2013-09-25 04:13:00,57.2,56.0,29.83,NW,308,0.0,2.0,94,0.00,,,0.00,0,weatherlink.com 1.10,2013-09-25 09:13:00,
2013-09-25 04:28:00,57.1,56.0,29.83,NW,308,0.0,1.0,95,0.00,,,0.00,0,weatherlink.com 1.10,2013-09-25 09:28:00,
2013-09-25 04:43:00,56.9,56.0,29.83,NW,308,0.0,2.0,95,0.00,,,0.00,0,weatherlink.com 1.10,2013-09-25 09:43:00,
2013-09-25 04:58:00,56.8,55.0,29.83,NW,308,0.0,0.0,95,0.00,,,0.00,0,weatherlink.com 1.10,2013-09-25 09:58:00,
2013-09-25 05:13:00,56.8,55.0,29.83,NW,308,0.0,1.0,95,0.00,,,0.00,0,weatherlink.com 1.10,2013-09-25 10:13:00,
2013-09-25 05:28:00,56.7,55.0,29.84,NW,308,1.0,2.0,95,0.00,,,0.00,0,weatherlink.com 1.10,2013-09-25 10:28:00,
2013-09-25 05:43:00,56.7,55.0,29.84,NW,308,1.0,3.0,95,0.00,,,0.00,0,weatherlink.com 1.10,2013-09-25 10:43:00,
2013-09-25 05:58:00,56.8,55.0,29.84,NW,308,1.0,2.0,95,0.00,,,0.00,0,weatherlink.com 1.10,2013-09-25 10:58:00,
2013-09-25 06:13:00,56.4,55.0,29.84,NW,308,0.0,2.0,95,0.00,,,0.00,0,weatherlink.com 1.10,2013-09-25 11:13:00,
2013-09-25 06:28:00,56.4,55.0,29.84,NW,308,0.0,1.0,95,0.00,,,0.00,0,weatherlink.com 1.10,2013-09-25 11:28:00,
2013-09-25 06:43:00,55.9,55.0,29.85,NW,308,0.0,1.0,95,0.00,,,0.00,0,weatherlink.com 1.10,2013-09-25 11:43:00,
2013-09-25 06:58:00,55.5,54.0,29.86,NW,308,0.0,1.0,95,0.00,,,0.00,0,weatherlink.com 1.10,2013-09-25 11:58:00,
2013-09-25 07:13:00,55.4,54.0,29.86,NW,308,0.0,1.0,96,0.00,,,0.00,0,weatherlink.com 1.10,2013-09-25 12:13:00,
2013-09-25 07:28:00,54.8,53.0,29.87,NW,308,0.0,0.0,95,0.00,,,0.00,14,weatherlink.com 1.10,2013-09-25 12:28:00,
2013-09-25 07:43:00,55.3,54.0,29.87,NW,308,0.0,1.0,96,0.00,,,0.00,26,weatherlink.com 1.10,2013-09-25 12:43:00,
2013-09-25 07:58:00,56.2,55.0,29.87,NW,308,0.0,1.0,96,0.00,,,0.00,37,weatherlink.com 1.10,2013-09-25 12:58:00,
2013-09-25 08:13:00,56.8,56.0,29.87,NW,308,0.0,1.0,96,0.01,,,0.01,72,weatherlink.com 1.10,2013-09-25 13:13:00,
2013-09-25 08:28:00,58.0,57.0,29.87,NW,308,0.0,2.0,96,0.01,,,0.01,135,weatherlink.com 1.10,2013-09-25 13:28:00,
2013-09-25 08:44:00,58.7,58.0,29.87,NW,308,2.0,2.0,96,0.01,,,0.01,169,weatherlink.com 1.10,2013-09-25 13:44:00,
2013-09-25 08:59:00,59.6,59.0,29.87,NW,308,1.0,3.0,96,0.01,,,0.01,237,weatherlink.com 1.10,2013-09-25 13:59:00,
2013-09-25 09:14:00,59.2,58.0,29.87,NW,308,1.0,3.0,94,0.00,,,0.01,272,weatherlink.com 1.10,2013-09-25 14:14:00,
2013-09-25 09:29:00,62.5,61.0,29.88,NW,308,0.0,1.0,94,0.00,,,0.01,290,weatherlink.com 1.10,2013-09-25 14:29:00,
2013-09-25 09:44:00,63.9,61.0,29.87,NW,308,0.0,1.0,90,0.00,,,0.01,341,weatherlink.com 1.10,2013-09-25 14:44:00,
2013-09-25 09:59:00,67.2,62.0,29.87,NW,308,0.0,1.0,82,0.00,,,0.01,396,weatherlink.com 1.10,2013-09-25 14:59:00,
2013-09-25 10:14:00,67.4,62.0,29.87,NW,308,0.0,2.0,83,0.00,,,0.01,443,weatherlink.com 1.10,2013-09-25 15:14:00,
2013-09-25 10:29:00,67.6,63.0,29.88,NW,308,0.0,1.0,85,0.00,,,0.01,483,weatherlink.com 1.10,2013-09-25 15:29:00,
2013-09-25 10:44:00,70.6,64.0,29.88,NW,308,0.0,2.0,80,0.00,,,0.01,519,weatherlink.com 1.10,2013-09-25 15:44:00,
2013-09-25 10:59:00,70.6,63.0,29.87,NW,308,0.0,1.0,77,0.00,,,0.01,547,weatherlink.com 1.10,2013-09-25 15:59:00,
2013-09-25 11:14:00,71.0,63.0,29.87,NW,308,0.0,3.0,77,0.00,,,0.01,585,weatherlink.com 1.10,2013-09-25 16:14:00,
2013-09-25 11:29:00,71.4,64.0,29.87,NNW,336,0.0,3.0,76,0.00,,,0.01,622,weatherlink.com 1.10,2013-09-25 16:29:00,
2013-09-25 11:44:00,71.1,62.0,29.87,NNW,336,0.0,3.0,74,0.00,,,0.01,640,weatherlink.com 1.10,2013-09-25 16:44:00,
2013-09-25 11:59:00,72.3,63.0,29.86,NNW,342,2.0,3.0,72,0.00,,,0.01,661,weatherlink.com 1.10,2013-09-25 16:59:00,
2013-09-25 12:14:00,73.3,66.0,29.86,NNE,26,0.0,4.0,77,0.00,,,0.01,680,weatherlink.com 1.10,2013-09-25 17:14:00,
2013-09-25 12:29:00,73.9,64.0,29.85,NE,41,1.0,5.0,70,0.00,,,0.01,693,weatherlink.com 1.10,2013-09-25 17:29:00,
2013-09-25 12:44:00,74.7,63.0,29.85,NE,42,0.0,5.0,68,0.00,,,0.01,698,weatherlink.com 1.10,2013-09-25 17:44:00,
2013-09-25 13:00:00,75.3,63.0,29.84,NE,56,3.0,5.0,66,0.00,,,0.01,717,weatherlink.com 1.10,2013-09-25 18:00:00,
2013-09-25 13:15:00,75.7,64.0,29.84,NE,54,0.0,6.0,67,0.00,,,0.01,703,weatherlink.com 1.10,2013-09-25 18:15:00,
2013-09-25 13:30:00,76.3,66.0,29.83,NE,54,0.0,3.0,70,0.00,,,0.01,513,weatherlink.com 1.10,2013-09-25 18:30:00,
2013-09-25 13:45:00,76.0,64.0,29.82,ENE,69,0.0,5.0,66,0.00,,,0.01,731,weatherlink.com 1.10,2013-09-25 18:45:00,
2013-09-25 14:00:00,76.4,66.0,29.81,East,80,0.0,5.0,71,0.00,,,0.01,724,weatherlink.com 1.10,2013-09-25 19:00:00,
2013-09-25 14:15:00,77.7,64.0,29.80,East,87,1.0,5.0,62,0.00,,,0.01,696,weatherlink.com 1.10,2013-09-25 19:15:00,
2013-09-25 14:30:00,76.7,63.0,29.80,East,96,0.0,5.0,63,0.00,,,0.01,677,weatherlink.com 1.10,2013-09-25 19:30:00,
2013-09-25 14:45:00,77.5,63.0,29.80,East,96,0.0,5.0,61,0.00,,,0.01,656,weatherlink.com 1.10,2013-09-25 19:45:00,
2013-09-25 15:00:00,77.8,65.0,29.80,East,96,0.0,6.0,64,0.00,,,0.01,645,weatherlink.com 1.10,2013-09-25 20:00:00,
2013-09-25 15:15:00,78.6,64.0,29.79,East,101,1.0,5.0,62,0.00,,,0.01,619,weatherlink.com 1.10,2013-09-25 20:15:00,
2013-09-25 15:30:00,78.3,64.0,29.79,East,100,3.0,6.0,62,0.00,,,0.01,601,weatherlink.com 1.10,2013-09-25 20:30:00,
2013-09-25 15:39:00,-999.0,-99.9,29.79,North,-999,-999.0,-999.0,-999,0.00,,,0.00,,weatherlink.com 1.10,2013-09-25 20:39:00,
2013-09-25 15:54:00,78.7,64.0,29.79,ESE,103,0.0,6.0,60,0.00,,,0.00,589,weatherlink.com 1.10,2013-09-25 20:54:00,
2013-09-25 16:09:00,78.7,64.0,29.79,SE,136,3.0,6.0,60,0.00,,,0.00,520,weatherlink.com 1.10,2013-09-25 21:09:00,
2013-09-25 16:24:00,78.8,63.0,29.79,SE,134,2.0,5.0,59,0.00,,,0.00,475,weatherlink.com 1.10,2013-09-25 21:24:00,
2013-09-25 16:39:00,78.2,63.0,29.78,SE,125,0.0,7.0,60,0.00,,,0.00,434,weatherlink.com 1.10,2013-09-25 21:39:00,
2013-09-25 16:54:00,78.3,63.0,29.78,SE,132,3.0,7.0,60,0.00,,,0.00,394,weatherlink.com 1.10,2013-09-25 21:54:00,
2013-09-25 17:09:00,77.8,64.0,29.78,SE,128,0.0,5.0,62,0.00,,,0.00,346,weatherlink.com 1.10,2013-09-25 22:09:00,
2013-09-25 17:24:00,77.6,63.0,29.78,SE,127,3.0,4.0,62,0.00,,,0.00,304,weatherlink.com 1.10,2013-09-25 22:24:00,
2013-09-25 17:40:00,77.0,63.0,29.79,ESE,115,0.0,5.0,62,0.00,,,0.00,250,weatherlink.com 1.10,2013-09-25 22:40:00,
2013-09-25 17:55:00,76.4,63.0,29.79,ESE,116,4.0,5.0,64,0.00,,,0.00,207,weatherlink.com 1.10,2013-09-25 22:55:00,
2013-09-25 18:10:00,75.9,63.0,29.78,ESE,115,1.0,7.0,65,0.00,,,0.00,151,weatherlink.com 1.10,2013-09-25 23:10:00,
2013-09-25 18:25:00,75.2,64.0,29.78,ESE,115,1.0,8.0,68,0.00,,,0.00,30,weatherlink.com 1.10,2013-09-25 23:25:00,
2013-09-25 18:41:00,74.2,64.0,29.78,ESE,114,1.0,4.0,70,0.00,,,0.00,23,weatherlink.com 1.10,2013-09-25 23:41:00,
2013-09-25 18:55:00,73.2,64.0,29.78,ESE,111,0.0,7.0,72,0.00,,,0.00,14,weatherlink.com 1.10,2013-09-25 23:55:00,
2013-09-25 19:10:00,72.1,63.0,29.77,ESE,111,1.0,5.0,74,0.00,,,0.00,5,weatherlink.com 1.10,2013-09-26 00:10:00,
2013-09-25 19:25:00,71.2,63.0,29.78,ESE,112,1.0,4.0,75,0.00,,,0.00,0,weatherlink.com 1.10,2013-09-26 00:25:00,
2013-09-25 19:40:00,70.5,63.0,29.78,ESE,112,0.0,5.0,76,0.00,,,0.00,0,weatherlink.com 1.10,2013-09-26 00:40:00,
2013-09-25 19:55:00,69.7,62.0,29.78,ESE,112,0.0,3.0,77,0.00,,,0.00,0,weatherlink.com 1.10,2013-09-26 00:55:00,
2013-09-25 20:10:00,69.0,62.0,29.79,ESE,112,0.0,4.0,79,0.00,,,0.00,0,weatherlink.com 1.10,2013-09-26 01:10:00,
2013-09-25 20:25:00,68.6,62.0,29.79,ESE,112,1.0,5.0,80,0.00,,,0.00,0,weatherlink.com 1.10,2013-09-26 01:25:00,
2013-09-25 20:40:00,68.2,62.0,29.79,ESE,113,2.0,5.0,80,0.00,,,0.00,0,weatherlink.com 1.10,2013-09-26 01:40:00,
2013-09-25 20:55:00,67.9,62.0,29.79,ESE,113,1.0,7.0,81,0.00,,,0.00,0,weatherlink.com 1.10,2013-09-26 01:55:00,
2013-09-25 21:10:00,67.9,62.0,29.79,ESE,111,0.0,4.0,81,0.00,,,0.00,0,weatherlink.com 1.10,2013-09-26 02:10:00,
2013-09-25 21:25:00,67.6,62.0,29.79,ESE,113,5.0,5.0,81,0.00,,,0.00,0,weatherlink.com 1.10,2013-09-26 02:25:00,
2013-09-25 21:40:00,67.2,62.0,29.79,ESE,113,3.0,4.0,82,0.00,,,0.00,0,weatherlink.com 1.10,2013-09-26 02:40:00,
2013-09-25 21:55:00,66.8,61.0,29.79,ESE,111,4.0,7.0,82,0.00,,,0.00,0,weatherlink.com 1.10,2013-09-26 02:55:00,
2013-09-25 22:10:00,66.4,61.0,29.80,ESE,111,1.0,4.0,83,0.00,,,0.00,0,weatherlink.com 1.10,2013-09-26 03:10:00,
2013-09-25 22:25:00,66.0,61.0,29.80,ESE,111,0.0,3.0,83,0.00,,,0.00,0,weatherlink.com 1.10,2013-09-26 03:25:00,
2013-09-25 22:40:00,65.6,61.0,29.80,ESE,111,0.0,3.0,84,0.00,,,0.00,0,weatherlink.com 1.10,2013-09-26 03:40:00,
2013-09-25 22:55:00,65.2,61.0,29.80,ESE,111,0.0,3.0,85,0.00,,,0.00,0,weatherlink.com 1.10,2013-09-26 03:55:00,
2013-09-25 23:10:00,64.8,61.0,29.80,ESE,111,0.0,4.0,86,0.00,,,0.00,0,weatherlink.com 1.10,2013-09-26 04:10:00,
2013-09-25 23:25:00,64.5,60.0,29.80,ESE,111,2.0,4.0,86,0.00,,,0.00,0,weatherlink.com 1.10,2013-09-26 04:25:00,
2013-09-25 23:40:00,64.3,60.0,29.80,ESE,111,0.0,4.0,87,0.00,,,0.00,0,weatherlink.com 1.10,2013-09-26 04:40:00,
2013-09-25 23:55:00,64.1,60.0,29.81,ESE,111,1.0,4.0,87,0.00,,,0.00,0,weatherlink.com 1.10,2013-09-26 04:55:00,